Airfield :







YOU CAN JOIN US ON...

 
LOGIN :

Register | Disclaimer

   EN    FR    IT 

 









Legend :    VFR   Marginal VFR   IFR   Intensive IFR   Very Intensive IFR
Visi :
Ceiling :
>= 8 km
>= 3000ft
5 to 8 km
1000 to 3000 ft
1500m to 5 km
500 to 1000 ft
800 to 1500m
200 to 500 ft
< 800m
< 200 ft
Symbols :   Thunderstorms  Fog  Heavy snow  Heavy precipitations  Wind > 20 kt






- Airport Elevation : 496 ft
- IATA code : YQX


CYQX - Gander

CURRENT METAR :
  • 241100Z 26015G24KT 20SM FEW015 SCT062 SCT090 M02/M05 A3003 RMK CF1SC4AC1 CF TR AC TR SLP180

EXPIRED METARs :
  • 241000Z 26014G22KT 15SM SCT018 BKN065 M02/M05 A3001 RMK SC3SC2 SLP172
  • 240900Z 26015G21KT 15SM BKN017 OVC063 M02/M04 A3000 RMK SC6SC2 SLP168

TAF TAF CYQX
Valid from the 24 at 06:00 until the 25 at 06:00 UTC


240538Z 2406/2506 24015G25KT P6SM -SN OVC015
TEMPO 2406/2415 P6SM NSW OVC030
FM241500 30012G22KT P6SM SCT020
TEMPO 2415/2418 BKN020
FM242000 32010G20KT P6SM FEW020
BECMG 2422/2424 27005KT
BECMG 2502/2504 23010KT RMK NXT FCST BY 241200Z



MET'MAP, your aeronautical weather chart ! - Copyright ORBIFLY December 2007 - Disclaimer

ORBIFLY MET'MAP TEAM :

Programming & Development : Alexandra Zaïnal
Concept & original design : Baudouin d'Aumeries
Assistance for programming : Marc-Olivier Méhu
Technical & hardware support : Manuel Goepfert

Contact : metmap@orbifly.com




SOURCES & CREDITS :

   NOAA